Time;durP1;ratioP1;P1;durP2;ratioP2;P2;SDS_P1;SDS_P2;PMS_P1;PMS_P2;Temp;Humidity;BMP_temperature;BMP_pressure;BME280_temperature;BME280_humidity;BME280_pressure;Samples;Min_cycle;Max_cycle;Signal;HPM_P1;HPM_P2
2023/02/26 00:02:36;;;;;;;6.15;2.65;;;1.50;92.00;;;;;;6249158;28;20472;-85
2023/02/26 00:05:38;;;;;;;6.72;3.25;;;1.50;92.10;;;;;;6249405;28;20058;-84
2023/02/26 00:08:39;;;;;;;2.20;1.70;;;1.40;92.10;;;;;;6250076;28;20052;-84
2023/02/26 00:11:41;;;;;;;3.22;2.03;;;1.30;92.20;;;;;;6248115;28;20041;-83
2023/02/26 00:14:45;;;;;;;6.53;1.73;;;1.20;92.20;;;;;;6250395;28;20053;-85
2023/02/26 00:17:55;;;;;;;5.55;2.40;;;1.20;92.30;;;;;;6251796;28;20423;-84
2023/02/26 00:20:57;;;;;;;3.45;2.42;;;1.20;92.40;;;;;;6252916;28;20049;-83
2023/02/26 00:24:00;;;;;;;3.20;2.28;;;1.10;92.40;;;;;;6251936;28;20048;-83
2023/02/26 00:27:02;;;;;;;7.45;2.47;;;1.00;92.50;;;;;;6252564;28;20136;-84
2023/02/26 00:30:08;;;;;;;3.65;2.35;;;1.00;92.50;;;;;;6252338;28;20050;-84
2023/02/26 00:33:10;;;;;;;4.68;3.38;;;0.90;92.60;;;;;;6252552;28;20049;-83
2023/02/26 00:36:21;;;;;;;6.68;2.30;;;0.90;92.70;;;;;;6251074;28;20077;-84
2023/02/26 00:39:37;;;;;;;4.63;2.07;;;0.80;92.70;;;;;;6250810;28;20045;-83
2023/02/26 00:42:39;;;;;;;2.53;2.03;;;0.70;92.80;;;;;;6249918;28;20045;-83
2023/02/26 00:45:47;;;;;;;4.73;2.63;;;0.70;92.90;;;;;;6251083;28;20080;-85
2023/02/26 00:48:57;;;;;;;2.78;1.58;;;0.60;93.00;;;;;;6251547;28;20057;-85
2023/02/26 00:52:02;;;;;;;5.87;2.60;;;0.50;93.10;;;;;;6250978;28;20056;-85
2023/02/26 00:55:04;;;;;;;4.27;2.17;;;0.50;93.10;;;;;;6251271;28;20052;-84
2023/02/26 00:58:06;;;;;;;4.20;2.07;;;0.40;93.20;;;;;;6249879;28;20061;-84
2023/02/26 01:01:09;;;;;;;6.07;3.10;;;0.40;93.30;;;;;;6251235;28;20045;-85
2023/02/26 01:04:13;;;;;;;5.47;2.97;;;0.30;93.70;;;;;;6250107;28;20116;-84
2023/02/26 01:07:18;;;;;;;2.80;2.60;;;0.30;93.50;;;;;;6250479;28;20519;-84
2023/02/26 01:10:20;;;;;;;5.70;2.87;;;0.20;93.60;;;;;;6249522;28;20041;-85
2023/02/26 01:13:23;;;;;;;4.03;2.87;;;0.20;93.70;;;;;;6249724;28;20057;-84
2023/02/26 01:16:30;;;;;;;5.23;2.63;;;0.10;93.70;;;;;;6248610;28;20048;-84
2023/02/26 01:19:41;;;;;;;2.15;1.90;;;0.10;93.80;;;;;;6251067;28;20058;-84
2023/02/26 01:22:50;;;;;;;3.17;2.30;;;0.00;93.90;;;;;;6250259;28;20052;-84
2023/02/26 01:25:56;;;;;;;5.20;3.33;;;-0.10;93.90;;;;;;6250465;28;20037;-85
2023/02/26 01:28:58;;;;;;;2.47;1.90;;;-0.10;94.00;;;;;;6249822;28;20049;-87
2023/02/26 01:32:06;;;;;;;10.80;3.67;;;-0.20;94.40;;;;;;6248497;28;20049;-86
2023/02/26 01:35:17;;;;;;;6.88;2.85;;;-0.30;94.20;;;;;;6248910;28;20052;-86
2023/02/26 01:38:27;;;;;;;3.27;2.33;;;-0.40;94.40;;;;;;6249096;28;20045;-86
2023/02/26 01:41:33;;;;;;;2.90;2.47;;;-0.40;94.50;;;;;;6249246;28;20056;-86
2023/02/26 01:44:41;;;;;;;2.90;2.30;;;-0.50;94.60;;;;;;6250339;28;20050;-86
2023/02/26 01:47:51;;;;;;;3.73;2.67;;;-0.60;94.70;;;;;;6249092;28;20128;-87
2023/02/26 01:50:53;;;;;;;4.77;2.10;;;-0.60;94.90;;;;;;6248500;28;20511;-85
2023/02/26 01:53:59;;;;;;;3.57;2.13;;;-0.70;95.00;;;;;;6248647;28;20051;-85
2023/02/26 01:57:05;;;;;;;6.67;2.67;;;-0.70;95.20;;;;;;6248802;28;20050;-86
2023/02/26 02:00:08;;;;;;;2.00;1.80;;;-0.80;95.20;;;;;;6248517;28;20053;-86
2023/02/26 02:03:12;;;;;;;4.37;2.60;;;-0.80;95.30;;;;;;6248160;28;20821;-86
2023/02/26 02:06:19;;;;;;;2.80;2.20;;;-0.80;95.40;;;;;;6248228;28;20050;-85
2023/02/26 02:09:21;;;;;;;4.38;3.20;;;-0.80;95.50;;;;;;6249470;28;20509;-86
2023/02/26 02:12:32;;;;;;;2.87;2.30;;;-0.90;95.60;;;;;;6250309;28;20045;-85
2023/02/26 02:15:41;;;;;;;7.30;2.27;;;-0.90;95.70;;;;;;6249645;28;20045;-86
2023/02/26 02:18:53;;;;;;;5.00;3.03;;;-1.00;95.80;;;;;;6248931;28;20053;-85
2023/02/26 02:22:22;;;;;;;4.67;3.33;;;-1.00;95.90;;;;;;6250177;28;20045;-83
2023/02/26 02:25:55;;;;;;;3.30;1.98;;;-1.10;96.00;;;;;;6255655;28;20053;-87
2023/02/26 02:29:14;;;;;;;11.63;2.60;;;-1.10;96.10;;;;;;6251389;28;20041;-86
2023/02/26 02:32:21;;;;;;;3.87;3.17;;;-1.00;96.20;;;;;;6249879;28;20182;-86
2023/02/26 02:35:29;;;;;;;6.60;3.08;;;-1.00;96.30;;;;;;6250145;28;20041;-86
2023/02/26 02:38:35;;;;;;;13.02;3.70;;;-0.90;96.40;;;;;;6249483;28;20407;-85
2023/02/26 02:41:42;;;;;;;4.93;2.77;;;-0.90;96.40;;;;;;6250086;28;20085;-85
2023/02/26 02:44:48;;;;;;;2.85;2.65;;;-0.90;96.50;;;;;;6251381;28;20407;-86
2023/02/26 02:47:56;;;;;;;3.30;3.00;;;-0.90;96.50;;;;;;6250459;28;20067;-86
2023/02/26 02:51:01;;;;;;;5.07;3.93;;;-1.00;96.40;;;;;;6250264;28;20046;-85
2023/02/26 02:54:08;;;;;;;4.20;2.60;;;-1.10;96.50;;;;;;6249441;28;20511;-84
2023/02/26 02:57:15;;;;;;;4.57;3.17;;;-1.20;96.60;;;;;;6250379;28;20053;-86
2023/02/26 03:00:20;;;;;;;5.40;2.88;;;-1.40;96.70;;;;;;6250089;28;20050;-85
2023/02/26 03:03:29;;;;;;;4.40;3.43;;;-1.40;96.90;;;;;;6249371;28;20511;-86
2023/02/26 03:06:31;;;;;;;4.37;2.83;;;-1.40;96.90;;;;;;6250561;28;20392;-85
2023/02/26 03:09:33;;;;;;;4.47;3.30;;;-1.50;96.90;;;;;;6249305;28;20160;-84
2023/02/26 03:12:35;;;;;;;7.50;3.27;;;-1.50;97.00;;;;;;6248690;28;20049;-86
2023/02/26 03:15:42;;;;;;;5.53;3.33;;;-1.70;97.10;;;;;;6248853;28;20049;-84
2023/02/26 03:18:54;;;;;;;5.28;3.88;;;-1.70;97.40;;;;;;6249802;28;20042;-84
2023/02/26 03:22:02;;;;;;;5.53;3.07;;;-1.70;97.40;;;;;;6248870;28;20042;-85
2023/02/26 03:25:09;;;;;;;4.80;3.93;;;-1.70;97.60;;;;;;6248520;28;20056;-85
2023/02/26 03:28:18;;;;;;;4.67;3.80;;;-1.50;98.00;;;;;;6249024;28;20068;-86
2023/02/26 03:31:26;;;;;;;4.10;2.70;;;-1.40;97.80;;;;;;6248637;28;20049;-85
2023/02/26 03:34:33;;;;;;;;;;;-1.30;97.70;;;;;;6248629;28;20053;-87
2023/02/26 03:37:39;;;;;;;3.57;2.47;;;-1.30;97.70;;;;;;6247770;28;19921;-87
2023/02/26 03:40:47;;;;;;;4.60;4.17;;;-1.30;97.60;;;;;;6249455;28;20046;-86
2023/02/26 03:43:55;;;;;;;4.15;3.20;;;-1.30;97.70;;;;;;6250298;28;20053;-87
2023/02/26 03:46:59;;;;;;;13.43;3.70;;;-1.30;97.70;;;;;;6249481;28;20411;-85
2023/02/26 03:50:07;;;;;;;7.83;3.30;;;-1.30;97.70;;;;;;6250739;28;20056;-87
2023/02/26 03:53:12;;;;;;;6.70;3.57;;;-1.30;97.70;;;;;;6253503;28;20049;-86
2023/02/26 03:56:19;;;;;;;6.57;2.80;;;-1.40;97.70;;;;;;6252069;28;20053;-85
2023/02/26 03:59:21;;;;;;;2.53;2.33;;;-1.50;97.80;;;;;;6252259;28;20045;-86
2023/02/26 04:02:28;;;;;;;3.60;2.63;;;-1.60;97.90;;;;;;6252200;28;20284;-85
2023/02/26 04:05:35;;;;;;;16.13;3.05;;;-1.60;98.00;;;;;;6252477;28;20053;-86
2023/02/26 04:08:37;;;;;;;2.55;2.20;;;-1.70;98.10;;;;;;6253034;28;20053;-86
2023/02/26 04:11:39;;;;;;;4.97;3.40;;;-1.70;98.20;;;;;;6252130;28;20064;-86
2023/02/26 04:14:41;;;;;;;6.67;2.50;;;-1.80;98.30;;;;;;6252732;28;20420;-86
2023/02/26 04:17:43;;;;;;;4.73;2.53;;;-1.80;98.40;;;;;;6251783;28;20057;-85
2023/02/26 04:20:46;;;;;;;4.73;3.80;;;-1.80;98.50;;;;;;6251878;28;20049;-86
2023/02/26 04:23:47;;;;;;;10.27;4.43;;;-1.80;98.60;;;;;;6251207;28;20436;-86
2023/02/26 04:26:49;;;;;;;5.40;3.67;;;-1.80;98.80;;;;;;6252314;28;20045;-86
2023/02/26 04:29:51;;;;;;;6.23;3.10;;;-1.70;99.00;;;;;;6251507;28;20045;-86
2023/02/26 04:32:52;;;;;;;3.63;2.73;;;-1.60;99.00;;;;;;6251843;28;20049;-87
2023/02/26 04:35:55;;;;;;;4.67;3.67;;;-1.60;99.00;;;;;;6251386;28;20045;-85
2023/02/26 04:38:57;;;;;;;8.33;4.23;;;-1.60;99.00;;;;;;6251559;28;20049;-85
2023/02/26 04:41:59;;;;;;;4.10;3.70;;;-1.50;99.10;;;;;;6251648;28;20072;-86
2023/02/26 04:45:01;;;;;;;10.43;4.67;;;-1.50;99.10;;;;;;6251786;28;20368;-86
2023/02/26 04:48:02;;;;;;;5.27;3.23;;;-1.50;99.10;;;;;;6251874;28;20050;-86
2023/02/26 04:51:06;;;;;;;4.10;3.30;;;-1.50;99.10;;;;;;6251113;28;20049;-86
2023/02/26 04:54:08;;;;;;;5.60;3.30;;;-1.50;99.30;;;;;;6251419;28;20447;-87
2023/02/26 04:57:09;;;;;;;4.50;3.73;;;-1.40;99.30;;;;;;6280308;23;20415;-79
2023/02/26 05:00:14;;;;;;;9.00;4.10;;;-1.40;99.40;;;;;;6263723;28;20037;-80
2023/02/26 05:03:15;;;;;;;4.97;3.17;;;-1.40;99.40;;;;;;6261971;28;20054;-80
2023/02/26 05:06:19;;;;;;;9.33;4.03;;;-1.40;99.40;;;;;;6263200;28;20060;-79
2023/02/26 05:09:20;;;;;;;8.83;4.10;;;-1.50;99.40;;;;;;6265057;28;20053;-79
2023/02/26 05:12:22;;;;;;;7.10;4.30;;;-1.50;99.50;;;;;;6264121;28;20064;-79
2023/02/26 05:15:24;;;;;;;8.07;3.23;;;-1.60;99.50;;;;;;6263796;28;20052;-80
2023/02/26 05:18:25;;;;;;;13.67;7.97;;;-1.60;99.60;;;;;;6264147;28;20053;-80
2023/02/26 05:21:28;;;;;;;9.13;4.03;;;-1.60;99.70;;;;;;6263994;28;20057;-80
2023/02/26 05:24:30;;;;;;;4.03;3.10;;;-1.70;99.60;;;;;;6264406;28;20049;-80
2023/02/26 05:27:32;;;;;;;5.57;4.33;;;-1.70;99.70;;;;;;6263602;28;20053;-79
2023/02/26 05:30:33;;;;;;;6.90;5.27;;;-1.70;99.80;;;;;;6263594;28;20049;-79
2023/02/26 05:33:35;;;;;;;4.03;3.47;;;-1.70;99.90;;;;;;6262816;28;20056;-79
2023/02/26 05:36:38;;;;;;;3.63;3.27;;;-1.80;99.90;;;;;;6260779;28;20049;-79
2023/02/26 05:39:40;;;;;;;5.70;3.70;;;-1.80;99.90;;;;;;6260832;28;20045;-79
2023/02/26 05:42:42;;;;;;;5.43;3.07;;;-1.90;99.90;;;;;;6260191;28;20103;-79
2023/02/26 05:45:44;;;;;;;5.40;3.73;;;-2.00;99.90;;;;;;6259659;28;20045;-80
2023/02/26 05:48:45;;;;;;;8.00;3.93;;;-2.00;99.90;;;;;;6259057;28;20045;-81
2023/02/26 05:51:48;;;;;;;5.53;3.80;;;-2.00;99.90;;;;;;6258256;28;20061;-81
2023/02/26 05:54:50;;;;;;;3.83;3.00;;;-2.10;99.90;;;;;;6259825;28;20054;-80
2023/02/26 05:57:52;;;;;;;4.83;4.33;;;-2.10;99.90;;;;;;6258776;28;20052;-81
2023/02/26 06:00:54;;;;;;;4.90;4.20;;;-2.10;99.90;;;;;;6258267;28;20047;-81
2023/02/26 06:03:55;;;;;;;5.90;3.47;;;-2.10;99.90;;;;;;6258298;28;20053;-80
2023/02/26 06:06:58;;;;;;;7.47;4.10;;;-2.10;99.90;;;;;;6258697;28;20057;-81
2023/02/26 06:10:00;;;;;;;7.67;5.03;;;-2.20;99.90;;;;;;6257733;28;20064;-81
2023/02/26 06:13:01;;;;;;;5.20;4.07;;;-2.20;99.90;;;;;;6257038;28;20053;-81
2023/02/26 06:16:04;;;;;;;8.43;3.97;;;-2.20;99.90;;;;;;6257686;28;20060;-81
2023/02/26 06:19:05;;;;;;;6.70;4.47;;;-2.30;99.90;;;;;;6258537;28;20722;-81
2023/02/26 06:22:08;;;;;;;5.27;4.33;;;-2.30;99.90;;;;;;6257799;28;20065;-80
2023/02/26 06:25:10;;;;;;;5.27;4.77;;;-2.30;99.90;;;;;;6258087;28;20056;-81
2023/02/26 06:28:12;;;;;;;9.03;4.67;;;-2.30;99.90;;;;;;6258427;28;20060;-81
2023/02/26 06:31:13;;;;;;;5.73;4.07;;;-2.30;99.90;;;;;;6257930;28;20049;-81
2023/02/26 06:34:15;;;;;;;7.63;4.00;;;-2.20;99.90;;;;;;6257883;28;20049;-81
2023/02/26 06:37:18;;;;;;;8.50;5.27;;;-2.10;99.90;;;;;;6258642;28;20053;-81
2023/02/26 06:40:20;;;;;;;9.63;5.17;;;-2.00;99.90;;;;;;6262986;28;20069;-81
2023/02/26 06:43:22;;;;;;;6.97;4.23;;;-2.00;99.90;;;;;;6255754;28;20503;-81
2023/02/26 06:46:24;;;;;;;11.00;5.37;;;-2.00;99.90;;;;;;6257232;28;20060;-81
2023/02/26 06:49:26;;;;;;;9.77;4.93;;;-1.90;99.90;;;;;;6260543;28;20049;-81
2023/02/26 06:52:29;;;;;;;9.80;5.87;;;-1.90;99.90;;;;;;6259326;28;20053;-81
2023/02/26 06:55:30;;;;;;;9.43;4.57;;;-1.80;99.90;;;;;;6256294;28;20064;-81
2023/02/26 06:58:32;;;;;;;9.50;4.53;;;-1.80;99.90;;;;;;6252031;28;20050;-81
2023/02/26 07:01:34;;;;;;;13.47;5.47;;;-1.70;99.90;;;;;;6249697;28;20049;-81
2023/02/26 07:04:36;;;;;;;10.90;5.30;;;-1.70;99.90;;;;;;6254169;28;20049;-81
2023/02/26 07:07:39;;;;;;;9.63;4.13;;;-1.60;99.90;;;;;;6254842;28;20064;-81
2023/02/26 07:10:41;;;;;;;10.33;4.63;;;-1.50;99.90;;;;;;6258280;28;20053;-81
2023/02/26 07:13:43;;;;;;;8.47;5.10;;;-1.30;99.90;;;;;;6258618;28;20061;-81
2023/02/26 07:16:44;;;;;;;11.77;4.57;;;-1.30;99.90;;;;;;6258543;28;20045;-81
2023/02/26 07:19:47;;;;;;;8.93;4.90;;;-1.20;99.90;;;;;;6258945;28;20046;-81
2023/02/26 07:22:50;;;;;;;10.37;4.93;;;-1.00;99.90;;;;;;6259417;28;20128;-81
2023/02/26 07:25:51;;;;;;;8.23;4.70;;;-0.90;99.90;;;;;;6267917;28;20042;-81
2023/02/26 07:28:53;;;;;;;5.77;4.10;;;-0.70;99.90;;;;;;6261611;28;20049;-81
2023/02/26 07:31:55;;;;;;;5.13;4.20;;;-0.60;99.90;;;;;;6261633;28;20045;-80
2023/02/26 07:34:57;;;;;;;7.63;5.53;;;-0.40;99.90;;;;;;6262350;28;20053;-81
2023/02/26 07:38:00;;;;;;;8.73;4.90;;;-0.30;99.90;;;;;;6261802;28;20060;-81
2023/02/26 07:41:01;;;;;;;8.80;4.83;;;-0.20;99.90;;;;;;6261458;28;20052;-81
2023/02/26 07:44:03;;;;;;;7.30;4.73;;;-0.10;99.90;;;;;;6262514;28;20068;-81
2023/02/26 07:47:05;;;;;;;7.40;6.23;;;0.00;99.90;;;;;;6261680;28;20071;-81
2023/02/26 07:50:08;;;;;;;10.50;5.20;;;0.10;99.90;;;;;;6259906;28;20510;-81
2023/02/26 07:53:11;;;;;;;7.03;4.27;;;0.30;99.90;;;;;;6260885;28;20053;-81
2023/02/26 07:56:12;;;;;;;7.40;4.90;;;0.50;99.90;;;;;;6259503;28;20045;-81
2023/02/26 07:59:14;;;;;;;10.93;5.60;;;0.70;99.90;;;;;;6260933;28;20533;-81
2023/02/26 08:02:16;;;;;;;9.35;4.03;;;0.90;99.90;;;;;;6260473;28;20136;-81
2023/02/26 08:05:18;;;;;;;7.93;4.82;;;1.00;99.90;;;;;;6260662;28;20056;-81
2023/02/26 08:08:21;;;;;;;7.85;4.38;;;1.10;99.90;;;;;;6260467;28;20060;-81
2023/02/26 08:11:23;;;;;;;6.20;5.70;;;1.20;99.90;;;;;;6257765;28;20053;-81
2023/02/26 08:14:25;;;;;;;7.53;3.83;;;1.20;99.90;;;;;;6257986;28;20049;-81
2023/02/26 08:17:26;;;;;;;12.30;4.40;;;1.30;99.90;;;;;;6259031;28;20049;-81
2023/02/26 08:20:28;;;;;;;7.95;3.65;;;1.50;99.90;;;;;;6257745;28;20042;-81
2023/02/26 08:23:32;;;;;;;5.80;4.20;;;1.60;99.90;;;;;;6257571;28;20053;-81
2023/02/26 08:26:36;;;;;;;7.45;4.47;;;1.80;99.90;;;;;;6260055;28;20049;-82
2023/02/26 08:29:38;;;;;;;9.15;4.13;;;1.80;99.90;;;;;;6259224;28;20136;-82
2023/02/26 08:32:41;;;;;;;7.85;3.90;;;1.90;99.90;;;;;;6258753;28;20049;-81
2023/02/26 08:35:42;;;;;;;4.50;3.10;;;1.80;99.90;;;;;;6260047;28;20053;-81
2023/02/26 08:38:45;;;;;;;8.02;4.07;;;1.90;99.90;;;;;;6259243;28;20538;-82
2023/02/26 08:41:47;;;;;;;12.23;3.95;;;2.00;99.90;;;;;;6259426;28;20054;-82
2023/02/26 08:44:49;;;;;;;8.73;7.78;;;2.20;99.90;;;;;;6258795;28;20045;-82
2023/02/26 08:47:52;;;;;;;92.70;68.93;;;2.20;99.90;;;;;;6259934;28;20426;-82
2023/02/26 08:50:53;;;;;;;13.02;4.22;;;2.30;99.90;;;;;;6259874;28;20046;-82
2023/02/26 08:53:56;;;;;;;6.82;4.40;;;2.40;99.90;;;;;;6260953;28;20048;-82
2023/02/26 08:56:58;;;;;;;6.38;3.75;;;2.50;99.90;;;;;;6260852;28;20057;-81
2023/02/26 09:00:00;;;;;;;8.70;3.55;;;2.70;99.90;;;;;;6260668;28;20128;-81
2023/02/26 09:03:02;;;;;;;5.45;3.80;;;2.90;99.90;;;;;;6260393;28;20383;-82
2023/02/26 09:06:04;;;;;;;17.70;15.93;;;3.10;99.90;;;;;;6259927;28;20049;-82
2023/02/26 09:09:07;;;;;;;15.60;11.32;;;3.10;99.90;;;;;;6261540;28;20095;-82
2023/02/26 09:12:09;;;;;;;4.32;3.40;;;3.10;99.90;;;;;;6258444;28;20046;-81
2023/02/26 09:15:13;;;;;;;5.35;4.05;;;3.20;99.90;;;;;;6260867;28;20046;-81
2023/02/26 09:18:15;;;;;;;6.93;4.35;;;3.10;99.70;;;;;;6259785;28;20057;-81
2023/02/26 09:21:16;;;;;;;5.90;3.50;;;3.00;99.30;;;;;;6260786;28;20454;-81
2023/02/26 09:24:19;;;;;;;5.93;2.70;;;2.70;98.90;;;;;;6259216;28;20056;-81
2023/02/26 09:27:21;;;;;;;7.82;2.70;;;2.60;99.30;;;;;;6258295;28;20048;-81
2023/02/26 09:30:23;;;;;;;4.53;3.15;;;2.60;99.10;;;;;;6248531;28;20053;-82
2023/02/26 09:33:25;;;;;;;9.35;3.00;;;2.50;99.20;;;;;;6258582;28;20057;-82
2023/02/26 09:36:27;;;;;;;6.18;3.00;;;2.60;99.50;;;;;;6255646;28;20048;-81
2023/02/26 09:39:30;;;;;;;4.13;2.65;;;2.80;99.50;;;;;;6256334;28;20045;-81
2023/02/26 09:43:02;;;;;;;9.63;3.08;;;3.00;99.40;;;;;;6252507;28;20136;-82
2023/02/26 09:46:10;;;;;;;5.78;2.95;;;3.20;99.30;;;;;;6252214;28;20050;-82
2023/02/26 09:49:22;;;;;;;5.93;5.32;;;3.20;98.80;;;;;;6254184;28;20045;-81
2023/02/26 09:52:28;;;;;;;7.00;3.92;;;3.30;98.70;;;;;;6252261;28;20045;-83
2023/02/26 09:55:44;;;;;;;10.77;4.63;;;3.40;98.30;;;;;;6255288;28;20037;-83
2023/02/26 09:58:46;;;;;;;2.53;2.28;;;3.40;98.60;;;;;;6257204;28;20112;-83
2023/02/26 10:01:55;;;;;;;2.72;2.22;;;3.50;98.50;;;;;;6257022;28;20060;-82
2023/02/26 10:05:08;;;;;;;4.70;2.40;;;3.50;98.50;;;;;;6251037;28;20407;-81
2023/02/26 10:08:15;;;;;;;10.40;2.10;;;3.50;97.80;;;;;;6250418;28;20121;-82
2023/02/26 10:11:29;;;;;;;3.15;2.47;;;3.30;97.80;;;;;;6258376;28;20042;-81
2023/02/26 10:14:36;;;;;;;3.67;3.38;;;3.30;97.70;;;;;;6256984;28;20415;-82
2023/02/26 10:17:46;;;;;;;5.97;2.35;;;3.20;97.60;;;;;;6263383;28;20052;-81
2023/02/26 10:20:55;;;;;;;6.15;3.05;;;3.10;97.10;;;;;;6258590;28;20470;-81
2023/02/26 10:24:00;;;;;;;2.60;2.40;;;3.00;97.10;;;;;;6250786;28;20145;-80
2023/02/26 10:27:06;;;;;;;4.32;1.70;;;2.90;97.00;;;;;;6259142;28;20053;-80
2023/02/26 10:30:14;;;;;;;2.78;1.67;;;2.90;97.10;;;;;;6255648;28;20119;-81
2023/02/26 10:33:21;;;;;;;3.78;2.03;;;2.80;96.90;;;;;;6252437;28;20053;-80
2023/02/26 10:36:25;;;;;;;2.58;1.85;;;2.70;96.70;;;;;;6256908;28;20053;-80
2023/02/26 10:39:31;;;;;;;4.05;1.50;;;2.70;96.70;;;;;;6257861;28;20049;-81
2023/02/26 10:42:41;;;;;;;10.27;4.97;;;2.70;96.60;;;;;;6255038;28;20048;-81
2023/02/26 10:45:53;;;;;;;3.78;1.92;;;2.70;96.70;;;;;;6251072;28;20049;-82
2023/02/26 10:49:14;;;;;;;2.47;2.15;;;2.80;96.60;;;;;;6253430;28;20053;-80
2023/02/26 10:52:18;;;;;;;3.03;2.50;;;2.90;96.60;;;;;;6252217;28;20672;-80
2023/02/26 10:55:37;;;;;;;2.85;1.60;;;3.00;96.70;;;;;;6259273;28;20407;-82
2023/02/26 10:58:40;;;;;;;1.73;1.45;;;3.10;96.40;;;;;;6252378;28;20064;-81
2023/02/26 11:01:42;;;;;;;4.65;2.15;;;3.10;96.20;;;;;;6250971;28;20042;-82
2023/02/26 11:04:44;;;;;;;2.22;1.80;;;3.10;96.00;;;;;;6256161;28;20050;-82
2023/02/26 11:07:51;;;;;;;2.22;1.70;;;3.10;96.10;;;;;;6254103;28;20048;-81
2023/02/26 11:10:55;;;;;;;3.13;2.58;;;3.10;96.10;;;;;;6251649;28;20053;-81
2023/02/26 11:13:57;;;;;;;7.43;1.77;;;3.10;96.20;;;;;;6250831;28;20049;-81
2023/02/26 11:17:03;;;;;;;2.20;1.63;;;3.10;95.90;;;;;;6257439;28;20237;-81
2023/02/26 11:20:15;;;;;;;2.08;1.42;;;3.10;95.90;;;;;;6253692;28;20060;-81
2023/02/26 11:23:20;;;;;;;1.25;1.05;;;3.00;95.70;;;;;;6253599;28;20061;-81
2023/02/26 11:26:27;;;;;;;2.53;1.30;;;3.00;95.70;;;;;;6256446;28;20391;-80
2023/02/26 11:29:37;;;;;;;1.40;1.25;;;3.00;95.60;;;;;;6250412;28;20045;-81
2023/02/26 11:32:39;;;;;;;3.40;1.63;;;3.10;95.60;;;;;;6253451;28;20037;-81
2023/02/26 11:35:41;;;;;;;2.78;2.58;;;3.20;95.50;;;;;;6254721;28;20048;-81
2023/02/26 11:38:45;;;;;;;2.97;1.95;;;3.20;95.40;;;;;;6251706;28;20052;-81
2023/02/26 11:41:49;;;;;;;1.65;1.45;;;3.20;95.40;;;;;;6250097;28;20130;-81
2023/02/26 11:44:53;;;;;;;2.40;1.42;;;3.30;95.40;;;;;;6258204;28;20049;-81
2023/02/26 11:48:01;;;;;;;1.70;1.40;;;3.30;95.30;;;;;;6249238;28;20056;-81
2023/02/26 11:51:05;;;;;;;1.90;1.48;;;3.30;95.20;;;;;;6261068;28;20045;-81
2023/02/26 11:54:20;;;;;;;3.45;1.17;;;3.20;95.30;;;;;;6255628;28;20045;-81
2023/02/26 11:57:25;;;;;;;0.90;0.90;;;3.20;95.20;;;;;;6252770;28;20381;-81
2023/02/26 12:00:31;;;;;;;3.50;2.67;;;3.20;95.20;;;;;;6249430;28;20045;-81
2023/02/26 12:03:38;;;;;;;3.83;1.48;;;3.10;95.20;;;;;;6255817;28;20045;-81
2023/02/26 12:06:41;;;;;;;5.07;2.05;;;3.20;95.40;;;;;;6250247;28;20521;-82
2023/02/26 12:09:44;;;;;;;5.00;3.60;;;3.20;95.50;;;;;;6249062;28;20068;-81
2023/02/26 12:13:06;;;;;;;1.58;1.40;;;3.30;95.30;;;;;;6252496;28;20046;-82
2023/02/26 12:16:19;;;;;;;2.78;1.55;;;3.30;95.30;;;;;;6259213;28;20046;-82
2023/02/26 12:19:32;;;;;;;1.85;1.45;;;3.30;95.30;;;;;;6242452;28;20499;-80
2023/02/26 12:22:45;;;;;;;2.50;1.55;;;3.40;95.30;;;;;;6258782;28;20042;-81
2023/02/26 12:26:25;;;;;;;1.50;1.40;;;3.40;95.30;;;;;;6254441;28;20053;-81
2023/02/26 12:29:54;;;;;;;1.25;1.15;;;3.50;95.20;;;;;;6244800;28;20104;-80
2023/02/26 12:33:16;;;;;;;1.67;1.17;;;3.60;95.10;;;;;;6256562;28;20404;-80
2023/02/26 12:36:30;;;;;;;1.45;1.30;;;3.60;94.60;;;;;;6259567;28;20045;-80
2023/02/26 12:39:43;;;;;;;1.27;1.17;;;3.80;94.60;;;;;;6258234;28;20079;-81
2023/02/26 12:42:52;;;;;;;1.90;1.20;;;3.80;94.50;;;;;;6254272;28;20040;-80
2023/02/26 12:46:02;;;;;;;2.35;1.40;;;3.80;94.30;;;;;;6254607;28;20060;-81
2023/02/26 12:49:43;;;;;;;1.70;1.20;;;3.80;94.30;;;;;;6255010;28;20060;-81
2023/02/26 12:52:58;;;;;;;1.05;0.93;;;3.80;94.40;;;;;;6249670;28;20139;-81
2023/02/26 12:56:29;;;;;;;3.55;2.95;;;3.80;94.30;;;;;;6256918;28;20053;-81
2023/02/26 12:59:46;;;;;;;4.65;1.33;;;3.80;94.30;;;;;;6251493;28;20037;-80
2023/02/26 13:03:30;;;;;;;1.30;1.20;;;3.90;94.20;;;;;;6254640;28;20053;-82
2023/02/26 13:06:46;;;;;;;2.92;1.77;;;4.00;94.00;;;;;;6223276;28;20503;-82
2023/02/26 13:09:58;;;;;;;1.17;1.10;;;4.10;93.90;;;;;;6250765;28;20531;-84
2023/02/26 13:13:14;;;;;;;1.45;1.00;;;4.20;94.20;;;;;;6253453;28;20053;-81
2023/02/26 13:16:29;;;;;;;1.23;1.10;;;4.30;94.00;;;;;;6256004;28;20045;-80
2023/02/26 13:19:38;;;;;;;2.03;1.02;;;4.40;94.00;;;;;;6256288;28;20052;-80
2023/02/26 13:22:45;;;;;;;1.20;0.98;;;4.40;94.00;;;;;;6258204;28;20055;-81
2023/02/26 13:25:51;;;;;;;2.08;1.63;;;4.50;94.20;;;;;;6254803;28;20049;-80
2023/02/26 13:28:57;;;;;;;2.80;1.90;;;4.40;93.80;;;;;;6261607;28;20065;-80
2023/02/26 13:32:01;;;;;;;1.23;1.02;;;4.30;94.00;;;;;;6250942;28;20053;-81
2023/02/26 13:35:06;;;;;;;2.03;1.20;;;4.30;93.90;;;;;;6254662;28;20051;-80
2023/02/26 13:38:19;;;;;;;1.88;1.20;;;4.30;93.70;;;;;;6257033;28;20172;-81
2023/02/26 13:41:28;;;;;;;1.88;0.90;;;4.50;93.50;;;;;;6255740;28;20054;-83
2023/02/26 13:44:38;;;;;;;1.08;0.90;;;4.50;92.80;;;;;;6250925;28;20424;-81
2023/02/26 13:48:07;;;;;;;2.47;2.03;;;4.50;92.50;;;;;;6256526;28;20051;-81
2023/02/26 13:51:13;;;;;;;2.10;1.15;;;4.40;92.20;;;;;;6259605;28;20437;-81
2023/02/26 13:54:41;;;;;;;1.55;1.25;;;4.30;92.30;;;;;;6257331;28;20052;-81
2023/02/26 13:57:50;;;;;;;1.55;0.70;;;4.20;92.30;;;;;;6255316;28;20060;-81
2023/02/26 14:01:01;;;;;;;1.85;0.90;;;4.10;92.30;;;;;;6259959;28;20519;-81
2023/02/26 14:04:24;;;;;;;4.72;1.98;;;4.10;92.30;;;;;;6258395;28;20094;-81
2023/02/26 14:07:48;;;;;;;2.00;1.42;;;4.10;92.10;;;;;;6258601;28;20060;-81
2023/02/26 14:10:59;;;;;;;1.50;1.27;;;4.30;92.30;;;;;;6259873;28;20061;-79
2023/02/26 14:14:14;;;;;;;1.33;1.05;;;4.50;92.10;;;;;;6256064;28;20161;-78
2023/02/26 14:17:38;;;;;;;1.73;1.05;;;4.50;91.70;;;;;;6262779;28;20053;-80
2023/02/26 14:20:40;;;;;;;1.17;1.00;;;4.40;91.60;;;;;;6251058;28;20053;-80
2023/02/26 14:23:45;;;;;;;1.08;1.00;;;4.40;91.40;;;;;;6249173;28;20053;-82
2023/02/26 14:26:51;;;;;;;1.92;1.42;;;4.40;91.40;;;;;;6257941;28;20068;-81
2023/02/26 14:30:05;;;;;;;1.10;1.00;;;4.30;91.30;;;;;;6255824;28;20057;-81
2023/02/26 14:33:09;;;;;;;1.08;0.45;;;4.30;90.60;;;;;;6251263;28;20057;-82
2023/02/26 14:36:19;;;;;;;3.63;2.67;;;4.30;90.00;;;;;;6256069;28;20458;-80
2023/02/26 14:39:27;;;;;;;13.32;6.78;;;4.30;89.70;;;;;;6254109;28;20499;-79
2023/02/26 14:42:35;;;;;;;4.50;3.80;;;4.30;90.00;;;;;;6254639;28;20045;-80
2023/02/26 14:45:39;;;;;;;3.88;3.08;;;4.40;90.20;;;;;;6256682;28;20064;-80
2023/02/26 14:48:42;;;;;;;1.95;1.23;;;4.50;90.00;;;;;;6255230;28;20052;-80
2023/02/26 14:51:52;;;;;;;2.10;1.98;;;4.50;89.60;;;;;;6253468;28;20050;-80
2023/02/26 14:55:11;;;;;;;0.98;0.98;;;4.60;89.50;;;;;;6259332;28;20142;-80
2023/02/26 14:58:35;;;;;;;1.98;1.70;;;4.60;89.10;;;;;;6250190;28;20045;-80
2023/02/26 15:01:47;;;;;;;1.65;0.82;;;4.60;88.90;;;;;;6251897;28;20054;-81
2023/02/26 15:05:10;;;;;;;5.10;1.83;;;4.60;88.40;;;;;;6250881;28;20045;-80
2023/02/26 15:08:38;;;;;;;2.20;1.38;;;4.60;88.30;;;;;;6254530;28;20108;-80
2023/02/26 15:11:54;;;;;;;1.23;1.00;;;4.60;88.30;;;;;;6253320;28;20053;-80
2023/02/26 15:15:15;;;;;;;2.80;1.73;;;4.50;88.20;;;;;;6249515;28;20515;-80
2023/02/26 15:18:42;;;;;;;2.60;1.10;;;4.50;87.60;;;;;;6252772;28;20044;-80
2023/02/26 15:21:56;;;;;;;1.20;0.95;;;4.40;87.30;;;;;;6252374;28;20044;-80
2023/02/26 15:25:00;;;;;;;1.65;1.15;;;4.40;87.00;;;;;;6249896;28;20062;-79
2023/02/26 15:28:03;;;;;;;4.75;1.40;;;4.40;87.30;;;;;;6248252;28;20052;-80
2023/02/26 15:31:09;;;;;;;1.20;0.98;;;4.40;87.50;;;;;;6248857;28;20050;-80
2023/02/26 15:34:13;;;;;;;0.98;0.90;;;4.40;87.40;;;;;;6251502;28;20045;-80
2023/02/26 15:37:21;;;;;;;0.60;0.60;;;4.40;87.90;;;;;;6247544;28;20432;-79
2023/02/26 15:40:23;;;;;;;1.38;1.05;;;4.40;87.90;;;;;;6249824;28;20499;-80
2023/02/26 15:43:28;;;;;;;1.10;1.08;;;4.30;87.90;;;;;;6249169;28;20042;-79
2023/02/26 15:46:36;;;;;;;2.72;2.10;;;4.30;87.40;;;;;;6253054;28;20049;-80
2023/02/26 15:49:40;;;;;;;0.73;0.73;;;4.30;87.40;;;;;;6260602;28;20514;-79
2023/02/26 15:52:42;;;;;;;1.65;1.55;;;4.20;87.90;;;;;;6257100;28;20056;-80
2023/02/26 15:55:47;;;;;;;0.80;0.80;;;4.20;87.00;;;;;;6252846;28;20063;-83
2023/02/26 15:58:54;;;;;;;0.75;0.75;;;4.20;86.90;;;;;;6255744;28;20048;-81
2023/02/26 16:01:57;;;;;;;1.02;1.00;;;4.20;86.60;;;;;;6260082;28;20048;-80
2023/02/26 16:05:01;;;;;;;1.33;0.98;;;4.20;86.10;;;;;;6262017;28;20060;-80
2023/02/26 16:08:03;;;;;;;2.65;1.35;;;4.10;86.20;;;;;;6263082;28;20038;-80
2023/02/26 16:11:05;;;;;;;1.05;0.93;;;4.10;86.40;;;;;;6262214;28;20068;-79
2023/02/26 16:14:13;;;;;;;1.05;1.05;;;4.10;86.10;;;;;;6263394;28;20049;-79
2023/02/26 16:17:22;;;;;;;2.15;1.50;;;4.00;85.30;;;;;;6255392;28;20049;-80
2023/02/26 16:20:27;;;;;;;0.70;0.70;;;4.00;84.80;;;;;;6255267;28;20041;-80